sensor_id;sensor_type;location;lat;lon;timestamp;P1;durP1;ratioP1;P2;durP2;ratioP2
48516;SDS011;34310;51.904;4.256;2023-06-24T00:00:37;8.77;;;7.05;;
48516;SDS011;34310;51.904;4.256;2023-06-24T00:03:04;6.97;;;6.15;;
48516;SDS011;34310;51.904;4.256;2023-06-24T00:05:34;7.53;;;6.45;;
48516;SDS011;34310;51.904;4.256;2023-06-24T00:08:01;8.65;;;6.85;;
48516;SDS011;34310;51.904;4.256;2023-06-24T00:10:30;9.13;;;6.72;;
48516;SDS011;34310;51.904;4.256;2023-06-24T00:12:57;7.28;;;6.50;;
48516;SDS011;34310;51.904;4.256;2023-06-24T00:15:28;8.05;;;5.97;;
48516;SDS011;34310;51.904;4.256;2023-06-24T00:17:56;7.35;;;6.53;;
48516;SDS011;34310;51.904;4.256;2023-06-24T00:20:32;8.00;;;6.72;;
48516;SDS011;34310;51.904;4.256;2023-06-24T00:23:00;7.50;;;6.47;;
48516;SDS011;34310;51.904;4.256;2023-06-24T00:25:29;7.95;;;6.68;;
48516;SDS011;34310;51.904;4.256;2023-06-24T00:27:56;8.63;;;7.00;;
48516;SDS011;34310;51.904;4.256;2023-06-24T00:30:25;8.30;;;6.93;;
48516;SDS011;34310;51.904;4.256;2023-06-24T00:32:53;7.40;;;6.53;;
48516;SDS011;34310;51.904;4.256;2023-06-24T00:35:20;7.78;;;6.50;;
48516;SDS011;34310;51.904;4.256;2023-06-24T00:37:48;8.57;;;6.90;;
48516;SDS011;34310;51.904;4.256;2023-06-24T00:40:15;8.70;;;6.75;;
48516;SDS011;34310;51.904;4.256;2023-06-24T00:42:44;7.38;;;6.57;;
48516;SDS011;34310;51.904;4.256;2023-06-24T00:45:12;8.25;;;7.22;;
48516;SDS011;34310;51.904;4.256;2023-06-24T00:47:40;7.70;;;6.60;;
48516;SDS011;34310;51.904;4.256;2023-06-24T00:50:08;7.50;;;6.55;;
48516;SDS011;34310;51.904;4.256;2023-06-24T00:52:38;8.75;;;6.75;;
48516;SDS011;34310;51.904;4.256;2023-06-24T00:55:10;9.80;;;6.45;;
48516;SDS011;34310;51.904;4.256;2023-06-24T00:57:40;7.68;;;6.38;;
48516;SDS011;34310;51.904;4.256;2023-06-24T01:00:11;7.32;;;6.55;;
48516;SDS011;34310;51.904;4.256;2023-06-24T01:02:46;7.47;;;6.75;;
48516;SDS011;34310;51.904;4.256;2023-06-24T01:05:15;6.97;;;6.20;;
48516;SDS011;34310;51.904;4.256;2023-06-24T01:07:43;7.55;;;6.57;;
48516;SDS011;34310;51.904;4.256;2023-06-24T01:10:21;6.90;;;6.20;;
48516;SDS011;34310;51.904;4.256;2023-06-24T01:12:49;9.27;;;6.65;;
48516;SDS011;34310;51.904;4.256;2023-06-24T01:15:17;7.72;;;5.82;;
48516;SDS011;34310;51.904;4.256;2023-06-24T01:37:12;7.07;;;5.90;;
48516;SDS011;34310;51.904;4.256;2023-06-24T01:39:50;7.83;;;5.97;;
48516;SDS011;34310;51.904;4.256;2023-06-24T01:42:39;6.07;;;5.30;;
48516;SDS011;34310;51.904;4.256;2023-06-24T01:45:16;6.30;;;5.70;;
48516;SDS011;34310;51.904;4.256;2023-06-24T01:47:51;7.35;;;5.93;;
48516;SDS011;34310;51.904;4.256;2023-06-24T01:50:27;7.38;;;5.63;;
48516;SDS011;34310;51.904;4.256;2023-06-24T01:52:59;5.90;;;5.30;;
48516;SDS011;34310;51.904;4.256;2023-06-24T01:55:31;7.07;;;5.90;;
48516;SDS011;34310;51.904;4.256;2023-06-24T01:58:01;5.70;;;5.20;;
48516;SDS011;34310;51.904;4.256;2023-06-24T02:00:32;5.60;;;5.10;;
48516;SDS011;34310;51.904;4.256;2023-06-24T02:03:01;5.47;;;4.90;;
48516;SDS011;34310;51.904;4.256;2023-06-24T02:05:31;6.65;;;5.68;;
48516;SDS011;34310;51.904;4.256;2023-06-24T02:08:02;6.85;;;5.70;;
48516;SDS011;34310;51.904;4.256;2023-06-24T02:10:31;6.07;;;5.47;;
48516;SDS011;34310;51.904;4.256;2023-06-24T02:13:01;6.78;;;5.40;;
48516;SDS011;34310;51.904;4.256;2023-06-24T02:15:29;6.30;;;5.22;;
48516;SDS011;34310;51.904;4.256;2023-06-24T02:18:00;5.90;;;5.30;;
48516;SDS011;34310;51.904;4.256;2023-06-24T02:20:30;6.55;;;5.30;;
48516;SDS011;34310;51.904;4.256;2023-06-24T02:22:59;6.47;;;5.30;;
48516;SDS011;34310;51.904;4.256;2023-06-24T02:25:27;7.18;;;5.43;;
48516;SDS011;34310;51.904;4.256;2023-06-24T02:27:54;6.53;;;5.30;;
48516;SDS011;34310;51.904;4.256;2023-06-24T02:30:23;6.03;;;5.43;;
48516;SDS011;34310;51.904;4.256;2023-06-24T02:32:51;5.78;;;5.18;;
48516;SDS011;34310;51.904;4.256;2023-06-24T02:35:19;5.90;;;5.30;;
48516;SDS011;34310;51.904;4.256;2023-06-24T02:37:46;5.65;;;5.05;;
48516;SDS011;34310;51.904;4.256;2023-06-24T02:40:13;5.18;;;4.68;;
48516;SDS011;34310;51.904;4.256;2023-06-24T02:42:41;5.85;;;5.25;;
48516;SDS011;34310;51.904;4.256;2023-06-24T02:45:08;5.40;;;4.72;;
48516;SDS011;34310;51.904;4.256;2023-06-24T02:47:36;5.57;;;4.93;;
48516;SDS011;34310;51.904;4.256;2023-06-24T02:50:05;5.10;;;4.60;;
48516;SDS011;34310;51.904;4.256;2023-06-24T02:52:34;6.03;;;5.38;;
48516;SDS011;34310;51.904;4.256;2023-06-24T02:55:03;5.82;;;4.78;;
48516;SDS011;34310;51.904;4.256;2023-06-24T02:57:31;5.63;;;4.90;;
48516;SDS011;34310;51.904;4.256;2023-06-24T03:00:03;5.25;;;4.75;;
48516;SDS011;34310;51.904;4.256;2023-06-24T03:02:41;5.63;;;4.50;;
48516;SDS011;34310;51.904;4.256;2023-06-24T03:05:10;5.55;;;4.57;;
48516;SDS011;34310;51.904;4.256;2023-06-24T03:07:37;5.38;;;4.60;;
48516;SDS011;34310;51.904;4.256;2023-06-24T03:10:05;5.20;;;4.50;;
48516;SDS011;34310;51.904;4.256;2023-06-24T03:12:33;5.10;;;4.60;;
48516;SDS011;34310;51.904;4.256;2023-06-24T03:15:00;4.75;;;4.28;;
48516;SDS011;34310;51.904;4.256;2023-06-24T03:17:29;5.55;;;4.40;;
48516;SDS011;34310;51.904;4.256;2023-06-24T03:19:56;4.63;;;4.10;;
48516;SDS011;34310;51.904;4.256;2023-06-24T03:22:24;4.82;;;4.30;;
48516;SDS011;34310;51.904;4.256;2023-06-24T03:24:51;5.13;;;4.20;;
48516;SDS011;34310;51.904;4.256;2023-06-24T03:27:19;4.53;;;4.13;;
48516;SDS011;34310;51.904;4.256;2023-06-24T03:29:46;5.25;;;4.45;;
48516;SDS011;34310;51.904;4.256;2023-06-24T03:32:13;5.18;;;4.10;;
48516;SDS011;34310;51.904;4.256;2023-06-24T03:34:41;5.10;;;4.60;;
48516;SDS011;34310;51.904;4.256;2023-06-24T03:37:09;5.15;;;4.40;;
48516;SDS011;34310;51.904;4.256;2023-06-24T03:39:36;4.95;;;4.32;;
48516;SDS011;34310;51.904;4.256;2023-06-24T03:42:04;4.60;;;4.03;;
48516;SDS011;34310;51.904;4.256;2023-06-24T03:44:31;4.65;;;4.10;;
48516;SDS011;34310;51.904;4.256;2023-06-24T03:46:58;4.97;;;4.47;;
48516;SDS011;34310;51.904;4.256;2023-06-24T03:49:26;4.95;;;4.40;;
48516;SDS011;34310;51.904;4.256;2023-06-24T03:51:53;4.57;;;4.13;;
48516;SDS011;34310;51.904;4.256;2023-06-24T03:54:20;4.80;;;4.25;;
48516;SDS011;34310;51.904;4.256;2023-06-24T03:56:48;5.05;;;4.00;;
48516;SDS011;34310;51.904;4.256;2023-06-24T03:59:15;4.80;;;4.10;;
48516;SDS011;34310;51.904;4.256;2023-06-24T04:01:42;5.78;;;4.20;;
48516;SDS011;34310;51.904;4.256;2023-06-24T04:04:10;5.05;;;4.10;;
48516;SDS011;34310;51.904;4.256;2023-06-24T04:06:37;4.82;;;4.13;;
48516;SDS011;34310;51.904;4.256;2023-06-24T04:09:05;4.32;;;3.92;;
48516;SDS011;34310;51.904;4.256;2023-06-24T04:11:33;5.68;;;4.30;;
48516;SDS011;34310;51.904;4.256;2023-06-24T04:14:00;4.80;;;4.13;;
48516;SDS011;34310;51.904;4.256;2023-06-24T04:16:28;4.90;;;3.80;;
48516;SDS011;34310;51.904;4.256;2023-06-24T04:18:55;4.45;;;4.05;;
48516;SDS011;34310;51.904;4.256;2023-06-24T04:21:22;4.28;;;3.88;;
48516;SDS011;34310;51.904;4.256;2023-06-24T04:23:50;3.75;;;3.45;;
48516;SDS011;34310;51.904;4.256;2023-06-24T04:26:17;4.00;;;3.60;;
48516;SDS011;34310;51.904;4.256;2023-06-24T04:28:45;4.03;;;3.63;;
48516;SDS011;34310;51.904;4.256;2023-06-24T04:31:12;4.18;;;3.78;;
48516;SDS011;34310;51.904;4.256;2023-06-24T04:33:40;4.43;;;3.60;;
48516;SDS011;34310;51.904;4.256;2023-06-24T04:36:07;3.83;;;3.35;;
48516;SDS011;34310;51.904;4.256;2023-06-24T04:38:35;4.13;;;3.50;;
48516;SDS011;34310;51.904;4.256;2023-06-24T04:41:02;3.90;;;3.50;;
48516;SDS011;34310;51.904;4.256;2023-06-24T04:43:30;4.30;;;3.80;;
48516;SDS011;34310;51.904;4.256;2023-06-24T04:45:57;5.68;;;3.70;;
48516;SDS011;34310;51.904;4.256;2023-06-24T04:48:26;6.47;;;3.97;;
48516;SDS011;34310;51.904;4.256;2023-06-24T04:50:54;4.82;;;3.70;;
48516;SDS011;34310;51.904;4.256;2023-06-24T04:53:22;4.63;;;3.30;;
48516;SDS011;34310;51.904;4.256;2023-06-24T04:55:49;3.55;;;3.25;;
48516;SDS011;34310;51.904;4.256;2023-06-24T04:58:17;4.97;;;3.80;;
48516;SDS011;34310;51.904;4.256;2023-06-24T05:00:44;4.07;;;3.42;;
48516;SDS011;34310;51.904;4.256;2023-06-24T05:03:12;3.80;;;3.40;;
48516;SDS011;34310;51.904;4.256;2023-06-24T05:05:39;4.13;;;3.55;;
48516;SDS011;34310;51.904;4.256;2023-06-24T05:08:07;3.97;;;3.58;;
48516;SDS011;34310;51.904;4.256;2023-06-24T05:10:34;4.05;;;3.65;;
48516;SDS011;34310;51.904;4.256;2023-06-24T05:13:02;4.60;;;3.83;;
48516;SDS011;34310;51.904;4.256;2023-06-24T05:15:29;4.57;;;3.58;;
48516;SDS011;34310;51.904;4.256;2023-06-24T05:17:56;3.65;;;3.20;;
48516;SDS011;34310;51.904;4.256;2023-06-24T05:20:24;4.60;;;3.70;;
48516;SDS011;34310;51.904;4.256;2023-06-24T05:22:51;3.70;;;3.40;;
48516;SDS011;34310;51.904;4.256;2023-06-24T05:25:19;3.78;;;3.38;;
48516;SDS011;34310;51.904;4.256;2023-06-24T05:27:46;4.45;;;3.53;;
48516;SDS011;34310;51.904;4.256;2023-06-24T05:30:14;3.55;;;3.25;;
48516;SDS011;34310;51.904;4.256;2023-06-24T05:32:41;3.90;;;3.50;;
48516;SDS011;34310;51.904;4.256;2023-06-24T05:35:09;3.67;;;3.30;;
48516;SDS011;34310;51.904;4.256;2023-06-24T05:37:36;3.40;;;3.10;;
48516;SDS011;34310;51.904;4.256;2023-06-24T05:40:04;4.45;;;3.63;;
48516;SDS011;34310;51.904;4.256;2023-06-24T05:42:33;4.45;;;3.20;;
48516;SDS011;34310;51.904;4.256;2023-06-24T05:45:00;3.88;;;3.53;;
48516;SDS011;34310;51.904;4.256;2023-06-24T05:47:27;3.55;;;3.17;;
48516;SDS011;34310;51.904;4.256;2023-06-24T05:49:55;4.65;;;3.55;;
48516;SDS011;34310;51.904;4.256;2023-06-24T05:52:22;3.88;;;3.17;;
48516;SDS011;34310;51.904;4.256;2023-06-24T05:54:50;3.15;;;2.85;;
48516;SDS011;34310;51.904;4.256;2023-06-24T05:57:17;4.10;;;3.30;;
48516;SDS011;34310;51.904;4.256;2023-06-24T05:59:44;3.65;;;3.03;;
48516;SDS011;34310;51.904;4.256;2023-06-24T06:02:12;3.53;;;3.22;;
48516;SDS011;34310;51.904;4.256;2023-06-24T06:04:39;3.67;;;3.28;;
48516;SDS011;34310;51.904;4.256;2023-06-24T06:07:07;3.60;;;3.30;;
48516;SDS011;34310;51.904;4.256;2023-06-24T06:09:34;3.45;;;3.15;;
48516;SDS011;34310;51.904;4.256;2023-06-24T06:12:01;4.10;;;3.00;;
48516;SDS011;34310;51.904;4.256;2023-06-24T06:14:29;4.60;;;3.33;;
48516;SDS011;34310;51.904;4.256;2023-06-24T06:16:56;5.05;;;3.30;;
48516;SDS011;34310;51.904;4.256;2023-06-24T06:19:24;4.40;;;3.20;;
48516;SDS011;34310;51.904;4.256;2023-06-24T06:21:51;8.13;;;3.35;;
48516;SDS011;34310;51.904;4.256;2023-06-24T06:24:18;7.78;;;3.65;;
48516;SDS011;34310;51.904;4.256;2023-06-24T06:26:46;12.55;;;3.60;;
48516;SDS011;34310;51.904;4.256;2023-06-24T06:29:13;7.72;;;3.95;;
48516;SDS011;34310;51.904;4.256;2023-06-24T06:31:41;11.05;;;4.22;;
48516;SDS011;34310;51.904;4.256;2023-06-24T06:34:08;8.70;;;4.25;;
48516;SDS011;34310;51.904;4.256;2023-06-24T06:36:36;7.95;;;4.22;;
48516;SDS011;34310;51.904;4.256;2023-06-24T06:39:03;9.52;;;4.43;;
48516;SDS011;34310;51.904;4.256;2023-06-24T06:41:30;10.23;;;4.50;;
48516;SDS011;34310;51.904;4.256;2023-06-24T06:43:58;8.40;;;4.47;;
48516;SDS011;34310;51.904;4.256;2023-06-24T06:46:25;7.65;;;4.05;;
48516;SDS011;34310;51.904;4.256;2023-06-24T06:48:53;7.13;;;4.22;;
48516;SDS011;34310;51.904;4.256;2023-06-24T06:51:20;7.97;;;4.35;;
48516;SDS011;34310;51.904;4.256;2023-06-24T06:53:47;8.68;;;4.10;;
48516;SDS011;34310;51.904;4.256;2023-06-24T06:56:18;5.95;;;4.50;;
48516;SDS011;34310;51.904;4.256;2023-06-24T06:58:51;10.05;;;4.57;;
48516;SDS011;34310;51.904;4.256;2023-06-24T07:01:18;7.75;;;4.35;;
48516;SDS011;34310;51.904;4.256;2023-06-24T07:03:46;7.60;;;4.20;;
48516;SDS011;34310;51.904;4.256;2023-06-24T07:06:15;7.43;;;4.45;;
48516;SDS011;34310;51.904;4.256;2023-06-24T07:08:45;6.70;;;4.38;;
48516;SDS011;34310;51.904;4.256;2023-06-24T07:11:13;6.25;;;3.92;;
48516;SDS011;34310;51.904;4.256;2023-06-24T07:13:40;8.25;;;4.18;;
48516;SDS011;34310;51.904;4.256;2023-06-24T07:16:08;5.70;;;4.10;;
48516;SDS011;34310;51.904;4.256;2023-06-24T07:18:35;7.20;;;4.28;;
48516;SDS011;34310;51.904;4.256;2023-06-24T07:21:02;7.40;;;4.40;;
48516;SDS011;34310;51.904;4.256;2023-06-24T07:23:30;6.43;;;3.72;;
48516;SDS011;34310;51.904;4.256;2023-06-24T07:25:57;6.53;;;4.47;;
48516;SDS011;34310;51.904;4.256;2023-06-24T07:28:29;7.32;;;4.30;;
48516;SDS011;34310;51.904;4.256;2023-06-24T07:30:56;8.18;;;4.32;;
48516;SDS011;34310;51.904;4.256;2023-06-24T07:33:23;6.32;;;4.35;;
48516;SDS011;34310;51.904;4.256;2023-06-24T07:35:51;7.05;;;4.53;;
48516;SDS011;34310;51.904;4.256;2023-06-24T07:38:19;7.40;;;4.43;;
48516;SDS011;34310;51.904;4.256;2023-06-24T07:40:46;5.72;;;4.38;;
48516;SDS011;34310;51.904;4.256;2023-06-24T07:43:14;6.10;;;4.90;;
48516;SDS011;34310;51.904;4.256;2023-06-24T07:45:41;6.78;;;4.88;;
48516;SDS011;34310;51.904;4.256;2023-06-24T07:48:09;6.78;;;5.00;;
48516;SDS011;34310;51.904;4.256;2023-06-24T07:50:38;6.90;;;5.50;;
48516;SDS011;34310;51.904;4.256;2023-06-24T07:53:05;7.68;;;5.25;;
48516;SDS011;34310;51.904;4.256;2023-06-24T07:55:33;7.82;;;5.40;;
48516;SDS011;34310;51.904;4.256;2023-06-24T07:58:01;8.05;;;5.70;;
48516;SDS011;34310;51.904;4.256;2023-06-24T08:00:29;8.57;;;5.55;;
48516;SDS011;34310;51.904;4.256;2023-06-24T08:02:57;8.95;;;5.72;;
48516;SDS011;34310;51.904;4.256;2023-06-24T08:05:25;9.52;;;6.18;;
48516;SDS011;34310;51.904;4.256;2023-06-24T08:07:52;6.95;;;5.80;;
48516;SDS011;34310;51.904;4.256;2023-06-24T08:10:20;7.00;;;6.00;;
48516;SDS011;34310;51.904;4.256;2023-06-24T08:12:47;7.60;;;6.00;;
48516;SDS011;34310;51.904;4.256;2023-06-24T08:15:15;7.18;;;6.18;;
48516;SDS011;34310;51.904;4.256;2023-06-24T08:17:42;8.02;;;6.40;;
48516;SDS011;34310;51.904;4.256;2023-06-24T08:20:10;7.57;;;6.10;;
48516;SDS011;34310;51.904;4.256;2023-06-24T08:22:38;7.78;;;6.97;;
48516;SDS011;34310;51.904;4.256;2023-06-24T08:25:05;8.85;;;7.13;;
48516;SDS011;34310;51.904;4.256;2023-06-24T08:27:33;9.20;;;6.88;;
48516;SDS011;34310;51.904;4.256;2023-06-24T08:30:00;7.97;;;7.05;;
48516;SDS011;34310;51.904;4.256;2023-06-24T08:32:28;8.48;;;7.53;;
48516;SDS011;34310;51.904;4.256;2023-06-24T08:34:55;9.60;;;7.88;;
48516;SDS011;34310;51.904;4.256;2023-06-24T08:37:23;9.85;;;7.97;;
48516;SDS011;34310;51.904;4.256;2023-06-24T08:39:50;10.18;;;8.45;;
48516;SDS011;34310;51.904;4.256;2023-06-24T08:42:17;11.07;;;9.10;;
48516;SDS011;34310;51.904;4.256;2023-06-24T08:44:45;10.75;;;8.82;;
48516;SDS011;34310;51.904;4.256;2023-06-24T08:47:12;10.85;;;8.98;;
48516;SDS011;34310;51.904;4.256;2023-06-24T08:49:48;11.57;;;9.20;;
48516;SDS011;34310;51.904;4.256;2023-06-24T08:52:25;10.73;;;8.77;;
48516;SDS011;34310;51.904;4.256;2023-06-24T08:54:56;11.37;;;9.33;;
48516;SDS011;34310;51.904;4.256;2023-06-24T08:57:26;11.07;;;9.23;;
48516;SDS011;34310;51.904;4.256;2023-06-24T08:59:53;13.65;;;10.65;;
48516;SDS011;34310;51.904;4.256;2023-06-24T09:02:21;12.73;;;10.23;;
48516;SDS011;34310;51.904;4.256;2023-06-24T09:04:50;11.27;;;9.65;;
48516;SDS011;34310;51.904;4.256;2023-06-24T09:07:27;11.35;;;9.80;;
48516;SDS011;34310;51.904;4.256;2023-06-24T09:09:55;11.70;;;9.90;;
48516;SDS011;34310;51.904;4.256;2023-06-24T09:12:24;11.43;;;10.23;;
48516;SDS011;34310;51.904;4.256;2023-06-24T09:14:54;12.85;;;10.73;;
48516;SDS011;34310;51.904;4.256;2023-06-24T09:17:21;12.55;;;11.05;;
48516;SDS011;34310;51.904;4.256;2023-06-24T09:19:50;14.55;;;11.07;;
48516;SDS011;34310;51.904;4.256;2023-06-24T09:22:17;13.55;;;11.10;;
48516;SDS011;34310;51.904;4.256;2023-06-24T09:24:46;13.18;;;10.98;;
48516;SDS011;34310;51.904;4.256;2023-06-24T09:27:14;12.73;;;10.63;;
48516;SDS011;34310;51.904;4.256;2023-06-24T09:29:43;12.65;;;11.23;;
48516;SDS011;34310;51.904;4.256;2023-06-24T09:32:11;13.35;;;11.48;;
48516;SDS011;34310;51.904;4.256;2023-06-24T09:34:38;13.38;;;11.02;;
48516;SDS011;34310;51.904;4.256;2023-06-24T09:37:06;13.10;;;11.43;;
48516;SDS011;34310;51.904;4.256;2023-06-24T09:39:37;13.48;;;11.45;;
48516;SDS011;34310;51.904;4.256;2023-06-24T09:42:06;12.75;;;11.30;;
48516;SDS011;34310;51.904;4.256;2023-06-24T09:44:34;12.52;;;11.18;;
48516;SDS011;34310;51.904;4.256;2023-06-24T09:47:01;13.93;;;11.25;;
48516;SDS011;34310;51.904;4.256;2023-06-24T09:49:29;13.13;;;10.75;;
48516;SDS011;34310;51.904;4.256;2023-06-24T09:51:57;13.13;;;11.40;;
48516;SDS011;34310;51.904;4.256;2023-06-24T09:54:26;12.18;;;10.48;;
48516;SDS011;34310;51.904;4.256;2023-06-24T09:56:59;13.43;;;11.43;;
48516;SDS011;34310;51.904;4.256;2023-06-24T09:59:28;12.15;;;10.85;;
48516;SDS011;34310;51.904;4.256;2023-06-24T10:02:00;13.00;;;11.60;;
48516;SDS011;34310;51.904;4.256;2023-06-24T10:04:28;12.90;;;10.90;;
48516;SDS011;34310;51.904;4.256;2023-06-24T10:06:57;13.70;;;11.18;;
48516;SDS011;34310;51.904;4.256;2023-06-24T10:09:25;12.25;;;10.95;;
48516;SDS011;34310;51.904;4.256;2023-06-24T10:11:52;11.63;;;10.30;;
48516;SDS011;34310;51.904;4.256;2023-06-24T10:14:20;12.57;;;11.00;;
48516;SDS011;34310;51.904;4.256;2023-06-24T10:16:47;12.82;;;11.43;;
48516;SDS011;34310;51.904;4.256;2023-06-24T10:19:18;13.40;;;11.00;;
48516;SDS011;34310;51.904;4.256;2023-06-24T10:21:52;12.47;;;10.77;;
48516;SDS011;34310;51.904;4.256;2023-06-24T10:24:27;13.18;;;11.52;;
48516;SDS011;34310;51.904;4.256;2023-06-24T10:27:00;12.40;;;10.85;;
48516;SDS011;34310;51.904;4.256;2023-06-24T10:29:37;13.55;;;11.30;;
48516;SDS011;34310;51.904;4.256;2023-06-24T10:32:08;13.30;;;11.00;;
48516;SDS011;34310;51.904;4.256;2023-06-24T10:34:43;12.48;;;10.95;;
48516;SDS011;34310;51.904;4.256;2023-06-24T10:39:52;11.05;;;9.90;;
48516;SDS011;34310;51.904;4.256;2023-06-24T10:44:57;12.07;;;10.88;;
48516;SDS011;34310;51.904;4.256;2023-06-24T10:47:40;13.40;;;11.38;;
48516;SDS011;34310;51.904;4.256;2023-06-24T10:50:10;12.70;;;10.40;;
48516;SDS011;34310;51.904;4.256;2023-06-24T10:52:39;11.68;;;10.30;;
48516;SDS011;34310;51.904;4.256;2023-06-24T10:55:08;12.07;;;10.32;;
48516;SDS011;34310;51.904;4.256;2023-06-24T10:57:36;12.00;;;10.57;;
48516;SDS011;34310;51.904;4.256;2023-06-24T11:00:04;13.10;;;11.32;;
48516;SDS011;34310;51.904;4.256;2023-06-24T11:02:32;11.57;;;9.82;;
48516;SDS011;34310;51.904;4.256;2023-06-24T11:05:00;11.90;;;10.25;;
48516;SDS011;34310;51.904;4.256;2023-06-24T11:07:31;12.10;;;10.82;;
48516;SDS011;34310;51.904;4.256;2023-06-24T11:10:15;11.88;;;10.45;;
48516;SDS011;34310;51.904;4.256;2023-06-24T11:12:42;12.43;;;10.80;;
48516;SDS011;34310;51.904;4.256;2023-06-24T11:15:13;11.57;;;10.30;;
48516;SDS011;34310;51.904;4.256;2023-06-24T11:17:40;10.77;;;9.65;;
48516;SDS011;34310;51.904;4.256;2023-06-24T11:20:12;11.40;;;10.00;;
48516;SDS011;34310;51.904;4.256;2023-06-24T11:22:41;11.45;;;10.25;;
48516;SDS011;34310;51.904;4.256;2023-06-24T11:25:16;13.40;;;10.18;;
48516;SDS011;34310;51.904;4.256;2023-06-24T11:27:45;11.02;;;9.80;;
48516;SDS011;34310;51.904;4.256;2023-06-24T11:30:13;11.63;;;9.88;;
48516;SDS011;34310;51.904;4.256;2023-06-24T11:32:41;11.35;;;9.60;;
48516;SDS011;34310;51.904;4.256;2023-06-24T11:35:13;11.80;;;10.07;;
48516;SDS011;34310;51.904;4.256;2023-06-24T11:37:45;10.43;;;9.43;;
48516;SDS011;34310;51.904;4.256;2023-06-24T11:40:17;10.98;;;9.77;;
48516;SDS011;34310;51.904;4.256;2023-06-24T11:42:46;10.52;;;9.43;;
48516;SDS011;34310;51.904;4.256;2023-06-24T11:45:18;10.77;;;9.25;;
48516;SDS011;34310;51.904;4.256;2023-06-24T11:47:47;10.55;;;8.98;;
48516;SDS011;34310;51.904;4.256;2023-06-24T11:50:15;10.20;;;9.18;;
48516;SDS011;34310;51.904;4.256;2023-06-24T11:52:43;11.23;;;9.45;;
48516;SDS011;34310;51.904;4.256;2023-06-24T11:55:18;10.30;;;9.20;;
48516;SDS011;34310;51.904;4.256;2023-06-24T11:57:52;10.13;;;9.13;;
48516;SDS011;34310;51.904;4.256;2023-06-24T12:00:31;10.60;;;9.20;;
48516;SDS011;34310;51.904;4.256;2023-06-24T12:03:03;9.90;;;8.90;;
48516;SDS011;34310;51.904;4.256;2023-06-24T12:05:37;10.52;;;9.20;;
48516;SDS011;34310;51.904;4.256;2023-06-24T12:08:12;9.85;;;8.85;;
48516;SDS011;34310;51.904;4.256;2023-06-24T12:10:43;10.02;;;9.02;;
48516;SDS011;34310;51.904;4.256;2023-06-24T12:13:11;10.35;;;9.02;;
48516;SDS011;34310;51.904;4.256;2023-06-24T12:15:39;10.20;;;9.05;;
48516;SDS011;34310;51.904;4.256;2023-06-24T12:18:07;10.32;;;9.23;;
48516;SDS011;34310;51.904;4.256;2023-06-24T12:20:34;10.40;;;9.30;;
48516;SDS011;34310;51.904;4.256;2023-06-24T12:23:05;9.57;;;8.55;;
48516;SDS011;34310;51.904;4.256;2023-06-24T12:25:33;9.50;;;8.50;;
48516;SDS011;34310;51.904;4.256;2023-06-24T12:28:01;10.20;;;8.98;;
48516;SDS011;34310;51.904;4.256;2023-06-24T12:30:28;9.93;;;8.93;;
48516;SDS011;34310;51.904;4.256;2023-06-24T12:32:56;10.13;;;9.13;;
48516;SDS011;34310;51.904;4.256;2023-06-24T12:35:23;10.52;;;9.50;;
48516;SDS011;34310;51.904;4.256;2023-06-24T12:37:54;10.00;;;9.00;;
48516;SDS011;34310;51.904;4.256;2023-06-24T12:40:22;10.35;;;9.27;;
48516;SDS011;34310;51.904;4.256;2023-06-24T12:42:49;9.52;;;8.60;;
48516;SDS011;34310;51.904;4.256;2023-06-24T12:45:16;10.10;;;9.00;;
48516;SDS011;34310;51.904;4.256;2023-06-24T12:47:44;10.18;;;9.15;;
48516;SDS011;34310;51.904;4.256;2023-06-24T12:50:11;10.10;;;9.02;;
48516;SDS011;34310;51.904;4.256;2023-06-24T12:52:39;10.77;;;9.68;;
48516;SDS011;34310;51.904;4.256;2023-06-24T12:55:06;10.60;;;9.38;;
48516;SDS011;34310;51.904;4.256;2023-06-24T12:57:37;10.40;;;9.13;;
48516;SDS011;34310;51.904;4.256;2023-06-24T13:00:05;11.25;;;10.05;;
48516;SDS011;34310;51.904;4.256;2023-06-24T13:02:33;10.15;;;9.15;;
48516;SDS011;34310;51.904;4.256;2023-06-24T13:05:01;10.02;;;9.02;;
48516;SDS011;34310;51.904;4.256;2023-06-24T13:07:30;10.63;;;9.52;;
48516;SDS011;34310;51.904;4.256;2023-06-24T13:09:58;10.07;;;9.07;;
48516;SDS011;34310;51.904;4.256;2023-06-24T13:12:26;10.65;;;9.55;;
48516;SDS011;34310;51.904;4.256;2023-06-24T13:14:53;10.23;;;9.13;;
48516;SDS011;34310;51.904;4.256;2023-06-24T13:17:20;10.25;;;9.25;;
48516;SDS011;34310;51.904;4.256;2023-06-24T13:19:48;10.07;;;9.07;;
48516;SDS011;34310;51.904;4.256;2023-06-24T13:22:15;10.55;;;9.45;;
48516;SDS011;34310;51.904;4.256;2023-06-24T13:24:42;10.45;;;9.35;;
48516;SDS011;34310;51.904;4.256;2023-06-24T13:27:11;10.63;;;9.30;;
48516;SDS011;34310;51.904;4.256;2023-06-24T13:29:38;10.18;;;9.18;;
48516;SDS011;34310;51.904;4.256;2023-06-24T13:32:05;10.60;;;9.50;;
48516;SDS011;34310;51.904;4.256;2023-06-24T13:34:33;10.52;;;9.43;;
48516;SDS011;34310;51.904;4.256;2023-06-24T13:37:01;10.18;;;9.13;;
48516;SDS011;34310;51.904;4.256;2023-06-24T13:39:29;10.75;;;9.65;;
48516;SDS011;34310;51.904;4.256;2023-06-24T13:41:58;10.38;;;9.27;;
48516;SDS011;34310;51.904;4.256;2023-06-24T13:44:26;9.98;;;8.88;;
48516;SDS011;34310;51.904;4.256;2023-06-24T13:46:54;10.20;;;9.20;;
48516;SDS011;34310;51.904;4.256;2023-06-24T13:49:22;11.00;;;9.60;;
48516;SDS011;34310;51.904;4.256;2023-06-24T13:51:49;10.40;;;9.30;;
48516;SDS011;34310;51.904;4.256;2023-06-24T13:54:17;10.18;;;9.07;;
48516;SDS011;34310;51.904;4.256;2023-06-24T13:56:44;9.65;;;8.65;;
48516;SDS011;34310;51.904;4.256;2023-06-24T13:59:11;10.32;;;9.32;;
48516;SDS011;34310;51.904;4.256;2023-06-24T14:01:39;9.90;;;8.90;;
48516;SDS011;34310;51.904;4.256;2023-06-24T14:04:07;10.18;;;9.15;;
48516;SDS011;34310;51.904;4.256;2023-06-24T14:06:34;9.40;;;8.40;;
48516;SDS011;34310;51.904;4.256;2023-06-24T14:09:02;10.23;;;9.20;;
48516;SDS011;34310;51.904;4.256;2023-06-24T14:11:29;10.23;;;9.18;;
48516;SDS011;34310;51.904;4.256;2023-06-24T14:13:57;9.60;;;8.60;;
48516;SDS011;34310;51.904;4.256;2023-06-24T14:16:24;9.50;;;8.60;;
48516;SDS011;34310;51.904;4.256;2023-06-24T14:18:51;9.73;;;8.73;;
48516;SDS011;34310;51.904;4.256;2023-06-24T14:21:19;9.30;;;8.40;;
48516;SDS011;34310;51.904;4.256;2023-06-24T14:23:46;9.52;;;8.32;;
48516;SDS011;34310;51.904;4.256;2023-06-24T14:26:14;9.60;;;8.60;;
48516;SDS011;34310;51.904;4.256;2023-06-24T14:28:42;9.13;;;8.32;;
48516;SDS011;34310;51.904;4.256;2023-06-24T14:31:10;9.25;;;8.27;;
48516;SDS011;34310;51.904;4.256;2023-06-24T14:33:37;9.32;;;8.32;;
48516;SDS011;34310;51.904;4.256;2023-06-24T14:36:05;9.05;;;8.15;;
48516;SDS011;34310;51.904;4.256;2023-06-24T14:38:32;8.90;;;8.00;;
48516;SDS011;34310;51.904;4.256;2023-06-24T14:41:00;8.55;;;7.70;;
48516;SDS011;34310;51.904;4.256;2023-06-24T14:43:27;8.15;;;7.35;;
48516;SDS011;34310;51.904;4.256;2023-06-24T14:45:55;8.43;;;7.63;;
48516;SDS011;34310;51.904;4.256;2023-06-24T14:48:24;8.38;;;7.57;;
48516;SDS011;34310;51.904;4.256;2023-06-24T14:50:51;8.15;;;7.35;;
48516;SDS011;34310;51.904;4.256;2023-06-24T14:53:18;7.93;;;7.13;;
48516;SDS011;34310;51.904;4.256;2023-06-24T14:55:46;8.00;;;7.30;;
48516;SDS011;34310;51.904;4.256;2023-06-24T14:58:13;8.20;;;7.40;;
48516;SDS011;34310;51.904;4.256;2023-06-24T15:00:44;8.27;;;7.47;;
48516;SDS011;34310;51.904;4.256;2023-06-24T15:03:11;7.47;;;6.78;;
48516;SDS011;34310;51.904;4.256;2023-06-24T15:05:39;8.10;;;7.30;;
48516;SDS011;34310;51.904;4.256;2023-06-24T15:08:07;7.97;;;7.18;;
48516;SDS011;34310;51.904;4.256;2023-06-24T15:10:34;7.22;;;6.53;;
48516;SDS011;34310;51.904;4.256;2023-06-24T15:13:02;7.57;;;6.80;;